sensor_id;sensor_type;location;lat;lon;timestamp;P1;durP1;ratioP1;P2;durP2;ratioP2
9520;SDS011;4798;41.574;23.734;2023-11-22T00:01:26;1.23;;;0.83;;
9520;SDS011;4798;41.574;23.734;2023-11-22T00:03:57;0.40;;;0.30;;
9520;SDS011;4798;41.574;23.734;2023-11-22T00:06:25;0.40;;;0.30;;
9520;SDS011;4798;41.574;23.734;2023-11-22T00:08:54;1.90;;;0.87;;
9520;SDS011;4798;41.574;23.734;2023-11-22T00:11:23;0.50;;;0.50;;
9520;SDS011;4798;41.574;23.734;2023-11-22T00:13:52;0.67;;;0.60;;
9520;SDS011;4798;41.574;23.734;2023-11-22T00:16:24;0.50;;;0.50;;
9520;SDS011;4798;41.574;23.734;2023-11-22T00:18:52;0.40;;;0.40;;
9520;SDS011;4798;41.574;23.734;2023-11-22T00:21:21;0.40;;;0.30;;
9520;SDS011;4798;41.574;23.734;2023-11-22T00:23:49;1.03;;;1.03;;
9520;SDS011;4798;41.574;23.734;2023-11-22T00:26:18;0.70;;;0.70;;
9520;SDS011;4798;41.574;23.734;2023-11-22T00:28:46;0.50;;;0.33;;
9520;SDS011;4798;41.574;23.734;2023-11-22T00:31:17;1.00;;;1.00;;
9520;SDS011;4798;41.574;23.734;2023-11-22T00:33:46;0.40;;;0.30;;
9520;SDS011;4798;41.574;23.734;2023-11-22T00:36:14;4.40;;;0.50;;
9520;SDS011;4798;41.574;23.734;2023-11-22T00:38:43;0.63;;;0.63;;
9520;SDS011;4798;41.574;23.734;2023-11-22T00:41:12;1.03;;;0.93;;
9520;SDS011;4798;41.574;23.734;2023-11-22T00:43:41;0.53;;;0.53;;
9520;SDS011;4798;41.574;23.734;2023-11-22T00:46:09;3.90;;;1.50;;
9520;SDS011;4798;41.574;23.734;2023-11-22T00:48:39;1.17;;;1.07;;
9520;SDS011;4798;41.574;23.734;2023-11-22T00:51:08;0.50;;;0.50;;
9520;SDS011;4798;41.574;23.734;2023-11-22T00:53:37;0.93;;;0.50;;
9520;SDS011;4798;41.574;23.734;2023-11-22T00:56:06;0.80;;;0.80;;
9520;SDS011;4798;41.574;23.734;2023-11-22T00:58:34;0.70;;;0.70;;
9520;SDS011;4798;41.574;23.734;2023-11-22T01:01:03;0.50;;;0.40;;
9520;SDS011;4798;41.574;23.734;2023-11-22T01:03:32;0.90;;;0.90;;
9520;SDS011;4798;41.574;23.734;2023-11-22T01:06:02;2.23;;;0.50;;
9520;SDS011;4798;41.574;23.734;2023-11-22T01:08:33;5.90;;;0.70;;
9520;SDS011;4798;41.574;23.734;2023-11-22T01:11:03;0.50;;;0.50;;
9520;SDS011;4798;41.574;23.734;2023-11-22T01:13:32;0.40;;;0.33;;
9520;SDS011;4798;41.574;23.734;2023-11-22T01:16:07;0.77;;;0.70;;
9520;SDS011;4798;41.574;23.734;2023-11-22T01:18:35;1.10;;;0.77;;
9520;SDS011;4798;41.574;23.734;2023-11-22T01:21:07;0.60;;;0.50;;
9520;SDS011;4798;41.574;23.734;2023-11-22T01:23:35;0.50;;;0.30;;
9520;SDS011;4798;41.574;23.734;2023-11-22T01:26:04;0.40;;;0.40;;
9520;SDS011;4798;41.574;23.734;2023-11-22T01:28:33;0.50;;;0.50;;
9520;SDS011;4798;41.574;23.734;2023-11-22T01:31:01;0.70;;;0.70;;
9520;SDS011;4798;41.574;23.734;2023-11-22T01:33:30;0.40;;;0.40;;
9520;SDS011;4798;41.574;23.734;2023-11-22T01:36:01;0.60;;;0.43;;
9520;SDS011;4798;41.574;23.734;2023-11-22T01:38:31;0.50;;;0.50;;
9520;SDS011;4798;41.574;23.734;2023-11-22T01:40:59;1.87;;;0.77;;
9520;SDS011;4798;41.574;23.734;2023-11-22T01:43:28;0.50;;;0.40;;
9520;SDS011;4798;41.574;23.734;2023-11-22T01:45:58;0.40;;;0.40;;
9520;SDS011;4798;41.574;23.734;2023-11-22T01:48:27;0.50;;;0.43;;
9520;SDS011;4798;41.574;23.734;2023-11-22T01:50:56;0.50;;;0.30;;
9520;SDS011;4798;41.574;23.734;2023-11-22T01:53:25;0.40;;;0.30;;
9520;SDS011;4798;41.574;23.734;2023-11-22T01:55:55;0.87;;;0.87;;
9520;SDS011;4798;41.574;23.734;2023-11-22T01:58:24;1.03;;;0.63;;
9520;SDS011;4798;41.574;23.734;2023-11-22T02:00:53;0.70;;;0.40;;
9520;SDS011;4798;41.574;23.734;2023-11-22T02:03:22;0.47;;;0.40;;
9520;SDS011;4798;41.574;23.734;2023-11-22T02:05:50;0.93;;;0.57;;
9520;SDS011;4798;41.574;23.734;2023-11-22T02:08:21;0.50;;;0.40;;
9520;SDS011;4798;41.574;23.734;2023-11-22T02:10:58;2.53;;;0.50;;
9520;SDS011;4798;41.574;23.734;2023-11-22T02:13:28;0.40;;;0.30;;
9520;SDS011;4798;41.574;23.734;2023-11-22T02:15:57;0.47;;;0.40;;
9520;SDS011;4798;41.574;23.734;2023-11-22T02:18:28;1.60;;;0.60;;
9520;SDS011;4798;41.574;23.734;2023-11-22T02:20:57;1.53;;;1.43;;
9520;SDS011;4798;41.574;23.734;2023-11-22T02:23:27;4.20;;;0.53;;
9520;SDS011;4798;41.574;23.734;2023-11-22T02:25:56;4.47;;;0.53;;
9520;SDS011;4798;41.574;23.734;2023-11-22T02:28:25;1.10;;;1.00;;
9520;SDS011;4798;41.574;23.734;2023-11-22T02:30:54;3.13;;;0.90;;
9520;SDS011;4798;41.574;23.734;2023-11-22T02:33:22;0.90;;;0.90;;
9520;SDS011;4798;41.574;23.734;2023-11-22T02:35:51;1.60;;;0.93;;
9520;SDS011;4798;41.574;23.734;2023-11-22T02:38:21;1.33;;;1.27;;
9520;SDS011;4798;41.574;23.734;2023-11-22T02:40:51;0.77;;;0.77;;
9520;SDS011;4798;41.574;23.734;2023-11-22T02:43:20;0.90;;;0.90;;
9520;SDS011;4798;41.574;23.734;2023-11-22T02:45:50;0.40;;;0.30;;
9520;SDS011;4798;41.574;23.734;2023-11-22T02:48:18;0.70;;;0.70;;
9520;SDS011;4798;41.574;23.734;2023-11-22T02:50:47;0.90;;;0.53;;
9520;SDS011;4798;41.574;23.734;2023-11-22T02:53:15;0.50;;;0.50;;
9520;SDS011;4798;41.574;23.734;2023-11-22T02:55:44;0.40;;;0.40;;
9520;SDS011;4798;41.574;23.734;2023-11-22T02:58:14;1.20;;;1.10;;
9520;SDS011;4798;41.574;23.734;2023-11-22T03:00:43;0.60;;;0.60;;
9520;SDS011;4798;41.574;23.734;2023-11-22T03:03:12;0.50;;;0.47;;
9520;SDS011;4798;41.574;23.734;2023-11-22T03:05:41;0.87;;;0.77;;
9520;SDS011;4798;41.574;23.734;2023-11-22T03:08:09;0.60;;;0.60;;
9520;SDS011;4798;41.574;23.734;2023-11-22T03:10:39;0.40;;;0.40;;
9520;SDS011;4798;41.574;23.734;2023-11-22T03:13:08;0.50;;;0.40;;
9520;SDS011;4798;41.574;23.734;2023-11-22T03:15:38;1.00;;;0.90;;
9520;SDS011;4798;41.574;23.734;2023-11-22T03:18:07;0.53;;;0.47;;
9520;SDS011;4798;41.574;23.734;2023-11-22T03:20:35;1.53;;;0.33;;
9520;SDS011;4798;41.574;23.734;2023-11-22T03:23:04;0.90;;;0.63;;
9520;SDS011;4798;41.574;23.734;2023-11-22T03:25:32;1.37;;;1.20;;
9520;SDS011;4798;41.574;23.734;2023-11-22T03:28:01;2.43;;;1.03;;
9520;SDS011;4798;41.574;23.734;2023-11-22T03:30:30;0.43;;;0.37;;
9520;SDS011;4798;41.574;23.734;2023-11-22T03:32:59;0.80;;;0.80;;
9520;SDS011;4798;41.574;23.734;2023-11-22T03:35:28;0.67;;;0.40;;
9520;SDS011;4798;41.574;23.734;2023-11-22T03:37:58;0.77;;;0.77;;
9520;SDS011;4798;41.574;23.734;2023-11-22T03:40:26;1.00;;;0.53;;
9520;SDS011;4798;41.574;23.734;2023-11-22T03:42:55;2.00;;;1.90;;
9520;SDS011;4798;41.574;23.734;2023-11-22T03:45:23;4.40;;;0.80;;
9520;SDS011;4798;41.574;23.734;2023-11-22T03:47:52;4.83;;;0.83;;
9520;SDS011;4798;41.574;23.734;2023-11-22T03:50:22;0.70;;;0.70;;
9520;SDS011;4798;41.574;23.734;2023-11-22T03:52:50;1.13;;;1.10;;
9520;SDS011;4798;41.574;23.734;2023-11-22T03:55:18;1.13;;;0.77;;
9520;SDS011;4798;41.574;23.734;2023-11-22T03:57:47;0.93;;;0.93;;
9520;SDS011;4798;41.574;23.734;2023-11-22T04:00:16;0.87;;;0.87;;
9520;SDS011;4798;41.574;23.734;2023-11-22T04:02:45;0.53;;;0.50;;
9520;SDS011;4798;41.574;23.734;2023-11-22T04:05:14;1.63;;;0.67;;
9520;SDS011;4798;41.574;23.734;2023-11-22T04:07:44;1.03;;;0.93;;
9520;SDS011;4798;41.574;23.734;2023-11-22T04:10:13;0.60;;;0.60;;
9520;SDS011;4798;41.574;23.734;2023-11-22T04:12:42;1.10;;;1.00;;
9520;SDS011;4798;41.574;23.734;2023-11-22T04:15:10;0.90;;;0.90;;
9520;SDS011;4798;41.574;23.734;2023-11-22T04:17:39;4.53;;;0.70;;
9520;SDS011;4798;41.574;23.734;2023-11-22T04:20:08;0.60;;;0.50;;
9520;SDS011;4798;41.574;23.734;2023-11-22T04:22:39;0.50;;;0.47;;
9520;SDS011;4798;41.574;23.734;2023-11-22T04:25:09;9.30;;;1.03;;
9520;SDS011;4798;41.574;23.734;2023-11-22T04:27:40;1.37;;;1.37;;
9520;SDS011;4798;41.574;23.734;2023-11-22T04:30:08;0.57;;;0.50;;
9520;SDS011;4798;41.574;23.734;2023-11-22T04:32:40;0.80;;;0.80;;
9520;SDS011;4798;41.574;23.734;2023-11-22T04:35:09;1.13;;;1.13;;
9520;SDS011;4798;41.574;23.734;2023-11-22T04:37:38;0.80;;;0.80;;
9520;SDS011;4798;41.574;23.734;2023-11-22T04:40:07;4.13;;;1.10;;
9520;SDS011;4798;41.574;23.734;2023-11-22T04:42:39;0.60;;;0.50;;
9520;SDS011;4798;41.574;23.734;2023-11-22T04:45:08;0.73;;;0.73;;
9520;SDS011;4798;41.574;23.734;2023-11-22T04:47:37;2.60;;;0.73;;
9520;SDS011;4798;41.574;23.734;2023-11-22T04:50:07;1.10;;;1.10;;
9520;SDS011;4798;41.574;23.734;2023-11-22T04:52:35;2.30;;;1.03;;
9520;SDS011;4798;41.574;23.734;2023-11-22T04:55:04;1.27;;;0.50;;
9520;SDS011;4798;41.574;23.734;2023-11-22T04:57:33;0.70;;;0.70;;
9520;SDS011;4798;41.574;23.734;2023-11-22T05:00:03;0.70;;;0.70;;
9520;SDS011;4798;41.574;23.734;2023-11-22T05:02:34;0.50;;;0.50;;
9520;SDS011;4798;41.574;23.734;2023-11-22T05:05:03;0.40;;;0.30;;
9520;SDS011;4798;41.574;23.734;2023-11-22T05:07:32;0.40;;;0.40;;
9520;SDS011;4798;41.574;23.734;2023-11-22T05:10:01;0.50;;;0.40;;
9520;SDS011;4798;41.574;23.734;2023-11-22T05:12:30;3.00;;;0.50;;
9520;SDS011;4798;41.574;23.734;2023-11-22T05:14:59;0.90;;;0.60;;
9520;SDS011;4798;41.574;23.734;2023-11-22T05:17:29;0.97;;;0.97;;
9520;SDS011;4798;41.574;23.734;2023-11-22T05:19:59;1.27;;;1.27;;
9520;SDS011;4798;41.574;23.734;2023-11-22T05:22:27;2.60;;;2.50;;
9520;SDS011;4798;41.574;23.734;2023-11-22T05:24:56;1.50;;;1.40;;
9520;SDS011;4798;41.574;23.734;2023-11-22T05:27:25;3.03;;;1.10;;
9520;SDS011;4798;41.574;23.734;2023-11-22T05:29:54;1.90;;;1.80;;
9520;SDS011;4798;41.574;23.734;2023-11-22T05:32:23;3.30;;;1.37;;
9520;SDS011;4798;41.574;23.734;2023-11-22T05:34:53;1.73;;;1.63;;
9520;SDS011;4798;41.574;23.734;2023-11-22T05:37:21;1.07;;;1.07;;
9520;SDS011;4798;41.574;23.734;2023-11-22T05:39:51;2.73;;;1.33;;
9520;SDS011;4798;41.574;23.734;2023-11-22T05:42:20;1.20;;;1.20;;
9520;SDS011;4798;41.574;23.734;2023-11-22T05:44:48;2.40;;;2.20;;
9520;SDS011;4798;41.574;23.734;2023-11-22T05:47:16;2.00;;;1.90;;
9520;SDS011;4798;41.574;23.734;2023-11-22T05:49:46;1.00;;;0.90;;
9520;SDS011;4798;41.574;23.734;2023-11-22T05:52:16;2.20;;;1.30;;
9520;SDS011;4798;41.574;23.734;2023-11-22T05:54:45;2.60;;;2.50;;
9520;SDS011;4798;41.574;23.734;2023-11-22T05:57:13;2.83;;;1.80;;
9520;SDS011;4798;41.574;23.734;2023-11-22T05:59:42;1.53;;;1.43;;
9520;SDS011;4798;41.574;23.734;2023-11-22T06:02:11;0.87;;;0.87;;
9520;SDS011;4798;41.574;23.734;2023-11-22T06:04:40;2.50;;;2.40;;
9520;SDS011;4798;41.574;23.734;2023-11-22T06:07:08;2.33;;;2.13;;
9520;SDS011;4798;41.574;23.734;2023-11-22T06:09:38;4.20;;;1.30;;
9520;SDS011;4798;41.574;23.734;2023-11-22T06:12:07;3.23;;;3.13;;
9520;SDS011;4798;41.574;23.734;2023-11-22T06:14:35;1.80;;;1.70;;
9520;SDS011;4798;41.574;23.734;2023-11-22T06:17:04;3.83;;;2.73;;
9520;SDS011;4798;41.574;23.734;2023-11-22T06:19:33;0.90;;;0.90;;
9520;SDS011;4798;41.574;23.734;2023-11-22T06:22:01;1.43;;;1.33;;
9520;SDS011;4798;41.574;23.734;2023-11-22T06:24:29;5.63;;;1.13;;
9520;SDS011;4798;41.574;23.734;2023-11-22T06:27:01;3.00;;;0.97;;
9520;SDS011;4798;41.574;23.734;2023-11-22T06:29:30;1.83;;;1.73;;
9520;SDS011;4798;41.574;23.734;2023-11-22T06:31:58;1.33;;;1.33;;
9520;SDS011;4798;41.574;23.734;2023-11-22T06:34:27;0.57;;;0.50;;
9520;SDS011;4798;41.574;23.734;2023-11-22T06:36:55;0.70;;;0.50;;
9520;SDS011;4798;41.574;23.734;2023-11-22T06:39:24;0.90;;;0.90;;
9520;SDS011;4798;41.574;23.734;2023-11-22T06:41:53;0.50;;;0.40;;
9520;SDS011;4798;41.574;23.734;2023-11-22T06:44:23;1.23;;;1.13;;
9520;SDS011;4798;41.574;23.734;2023-11-22T06:46:52;1.33;;;1.13;;
9520;SDS011;4798;41.574;23.734;2023-11-22T06:49:20;1.73;;;1.63;;
9520;SDS011;4798;41.574;23.734;2023-11-22T06:51:49;3.70;;;1.10;;
9520;SDS011;4798;41.574;23.734;2023-11-22T06:54:18;1.57;;;1.13;;
9520;SDS011;4798;41.574;23.734;2023-11-22T06:56:47;1.37;;;1.37;;
9520;SDS011;4798;41.574;23.734;2023-11-22T06:59:17;1.23;;;0.97;;
9520;SDS011;4798;41.574;23.734;2023-11-22T07:01:47;1.50;;;1.40;;
9520;SDS011;4798;41.574;23.734;2023-11-22T07:04:15;1.23;;;1.13;;
9520;SDS011;4798;41.574;23.734;2023-11-22T07:06:44;2.60;;;0.70;;
9520;SDS011;4798;41.574;23.734;2023-11-22T07:09:12;2.80;;;1.60;;
9520;SDS011;4798;41.574;23.734;2023-11-22T07:11:41;1.03;;;0.87;;
9520;SDS011;4798;41.574;23.734;2023-11-22T07:14:11;6.57;;;1.80;;
9520;SDS011;4798;41.574;23.734;2023-11-22T07:16:41;5.67;;;2.50;;
9520;SDS011;4798;41.574;23.734;2023-11-22T07:19:10;5.93;;;4.73;;
9520;SDS011;4798;41.574;23.734;2023-11-22T07:21:39;3.30;;;2.77;;
9520;SDS011;4798;41.574;23.734;2023-11-22T07:24:08;3.80;;;2.07;;
9520;SDS011;4798;41.574;23.734;2023-11-22T07:26:40;3.67;;;3.00;;
9520;SDS011;4798;41.574;23.734;2023-11-22T07:29:11;2.27;;;2.17;;
9520;SDS011;4798;41.574;23.734;2023-11-22T07:31:39;1.13;;;1.03;;
9520;SDS011;4798;41.574;23.734;2023-11-22T07:34:10;1.43;;;1.33;;
9520;SDS011;4798;41.574;23.734;2023-11-22T07:36:39;1.47;;;0.70;;
9520;SDS011;4798;41.574;23.734;2023-11-22T07:39:08;5.13;;;2.03;;
9520;SDS011;4798;41.574;23.734;2023-11-22T07:41:38;2.17;;;2.07;;
9520;SDS011;4798;41.574;23.734;2023-11-22T07:44:08;1.50;;;1.40;;
9520;SDS011;4798;41.574;23.734;2023-11-22T07:46:41;1.77;;;1.67;;
9520;SDS011;4798;41.574;23.734;2023-11-22T07:49:12;4.33;;;0.77;;
9520;SDS011;4798;41.574;23.734;2023-11-22T07:51:41;0.90;;;0.90;;
9520;SDS011;4798;41.574;23.734;2023-11-22T07:54:11;1.70;;;0.70;;
9520;SDS011;4798;41.574;23.734;2023-11-22T07:56:42;0.60;;;0.60;;
9520;SDS011;4798;41.574;23.734;2023-11-22T07:59:10;0.87;;;0.87;;
9520;SDS011;4798;41.574;23.734;2023-11-22T08:01:41;0.50;;;0.50;;
9520;SDS011;4798;41.574;23.734;2023-11-22T08:04:12;2.20;;;2.10;;
9520;SDS011;4798;41.574;23.734;2023-11-22T08:06:41;1.40;;;1.30;;
9520;SDS011;4798;41.574;23.734;2023-11-22T08:09:09;6.33;;;1.97;;
9520;SDS011;4798;41.574;23.734;2023-11-22T08:11:38;4.53;;;0.97;;
9520;SDS011;4798;41.574;23.734;2023-11-22T08:14:07;3.17;;;3.07;;
9520;SDS011;4798;41.574;23.734;2023-11-22T08:16:36;4.03;;;3.67;;
9520;SDS011;4798;41.574;23.734;2023-11-22T08:19:06;6.20;;;4.37;;
9520;SDS011;4798;41.574;23.734;2023-11-22T08:21:36;8.87;;;2.00;;
9520;SDS011;4798;41.574;23.734;2023-11-22T08:24:05;1.90;;;1.80;;
9520;SDS011;4798;41.574;23.734;2023-11-22T08:26:34;1.13;;;0.83;;
9520;SDS011;4798;41.574;23.734;2023-11-22T08:29:03;2.60;;;2.50;;
9520;SDS011;4798;41.574;23.734;2023-11-22T08:31:31;0.83;;;0.83;;
9520;SDS011;4798;41.574;23.734;2023-11-22T08:34:01;1.03;;;1.00;;
9520;SDS011;4798;41.574;23.734;2023-11-22T08:36:33;2.93;;;1.50;;
9520;SDS011;4798;41.574;23.734;2023-11-22T08:39:03;2.97;;;0.90;;
9520;SDS011;4798;41.574;23.734;2023-11-22T08:41:33;1.27;;;1.23;;
9520;SDS011;4798;41.574;23.734;2023-11-22T08:44:02;1.30;;;1.20;;
9520;SDS011;4798;41.574;23.734;2023-11-22T08:46:30;1.03;;;1.03;;
9520;SDS011;4798;41.574;23.734;2023-11-22T08:48:59;0.40;;;0.30;;
9520;SDS011;4798;41.574;23.734;2023-11-22T08:51:29;2.90;;;2.70;;
9520;SDS011;4798;41.574;23.734;2023-11-22T08:53:57;2.30;;;2.20;;
9520;SDS011;4798;41.574;23.734;2023-11-22T08:56:27;1.37;;;1.33;;
9520;SDS011;4798;41.574;23.734;2023-11-22T08:58:56;6.80;;;1.80;;
9520;SDS011;4798;41.574;23.734;2023-11-22T09:01:24;1.60;;;1.47;;
9520;SDS011;4798;41.574;23.734;2023-11-22T09:03:53;0.97;;;0.97;;
9520;SDS011;4798;41.574;23.734;2023-11-22T09:06:24;1.90;;;0.93;;
9520;SDS011;4798;41.574;23.734;2023-11-22T09:08:52;1.27;;;1.17;;
9520;SDS011;4798;41.574;23.734;2023-11-22T09:11:21;1.40;;;1.30;;
9520;SDS011;4798;41.574;23.734;2023-11-22T09:13:51;1.03;;;0.97;;
9520;SDS011;4798;41.574;23.734;2023-11-22T09:16:23;2.10;;;1.87;;
9520;SDS011;4798;41.574;23.734;2023-11-22T09:18:52;2.10;;;1.20;;
9520;SDS011;4798;41.574;23.734;2023-11-22T09:21:22;1.07;;;1.07;;
9520;SDS011;4798;41.574;23.734;2023-11-22T09:23:52;2.50;;;2.40;;
9520;SDS011;4798;41.574;23.734;2023-11-22T09:26:21;3.50;;;2.47;;
9520;SDS011;4798;41.574;23.734;2023-11-22T09:28:51;1.20;;;1.10;;
9520;SDS011;4798;41.574;23.734;2023-11-22T09:31:20;1.47;;;1.37;;
9520;SDS011;4798;41.574;23.734;2023-11-22T09:33:49;3.87;;;1.10;;
9520;SDS011;4798;41.574;23.734;2023-11-22T09:36:17;1.70;;;1.60;;
9520;SDS011;4798;41.574;23.734;2023-11-22T09:38:46;1.93;;;1.80;;
9520;SDS011;4798;41.574;23.734;2023-11-22T09:41:14;1.33;;;1.23;;
9520;SDS011;4798;41.574;23.734;2023-11-22T09:43:44;4.03;;;1.57;;
9520;SDS011;4798;41.574;23.734;2023-11-22T09:46:17;1.63;;;1.53;;
9520;SDS011;4798;41.574;23.734;2023-11-22T09:48:47;2.93;;;2.73;;
9520;SDS011;4798;41.574;23.734;2023-11-22T09:51:20;2.00;;;1.43;;
9520;SDS011;4798;41.574;23.734;2023-11-22T09:53:55;1.97;;;1.30;;
9520;SDS011;4798;41.574;23.734;2023-11-22T09:56:25;2.73;;;1.90;;
9520;SDS011;4798;41.574;23.734;2023-11-22T09:58:55;2.87;;;2.70;;
9520;SDS011;4798;41.574;23.734;2023-11-22T10:01:29;3.33;;;3.03;;
9520;SDS011;4798;41.574;23.734;2023-11-22T10:04:00;8.50;;;2.50;;
9520;SDS011;4798;41.574;23.734;2023-11-22T10:06:32;5.10;;;1.77;;
9520;SDS011;4798;41.574;23.734;2023-11-22T10:09:02;1.50;;;1.40;;
9520;SDS011;4798;41.574;23.734;2023-11-22T10:11:35;5.13;;;2.20;;
9520;SDS011;4798;41.574;23.734;2023-11-22T10:14:06;3.13;;;2.53;;
9520;SDS011;4798;41.574;23.734;2023-11-22T10:16:37;2.40;;;2.30;;
9520;SDS011;4798;41.574;23.734;2023-11-22T10:19:05;4.83;;;4.00;;
9520;SDS011;4798;41.574;23.734;2023-11-22T10:21:34;5.03;;;3.43;;
9520;SDS011;4798;41.574;23.734;2023-11-22T10:24:04;4.63;;;1.80;;
9520;SDS011;4798;41.574;23.734;2023-11-22T10:26:36;2.10;;;1.87;;
9520;SDS011;4798;41.574;23.734;2023-11-22T10:29:05;1.77;;;1.67;;
9520;SDS011;4798;41.574;23.734;2023-11-22T10:31:36;3.33;;;2.97;;
9520;SDS011;4798;41.574;23.734;2023-11-22T10:34:08;2.57;;;2.30;;
9520;SDS011;4798;41.574;23.734;2023-11-22T10:36:37;1.07;;;1.07;;
9520;SDS011;4798;41.574;23.734;2023-11-22T10:39:07;6.00;;;2.33;;
9520;SDS011;4798;41.574;23.734;2023-11-22T10:41:36;5.50;;;3.47;;
9520;SDS011;4798;41.574;23.734;2023-11-22T10:44:06;2.73;;;1.60;;
9520;SDS011;4798;41.574;23.734;2023-11-22T10:46:37;1.13;;;1.13;;
9520;SDS011;4798;41.574;23.734;2023-11-22T10:49:07;2.07;;;1.97;;
9520;SDS011;4798;41.574;23.734;2023-11-22T10:51:39;3.30;;;2.63;;
9520;SDS011;4798;41.574;23.734;2023-11-22T10:54:09;2.53;;;1.83;;
9520;SDS011;4798;41.574;23.734;2023-11-22T10:56:38;1.70;;;1.60;;
9520;SDS011;4798;41.574;23.734;2023-11-22T10:59:12;1.70;;;1.50;;
9520;SDS011;4798;41.574;23.734;2023-11-22T11:01:45;4.13;;;1.50;;
9520;SDS011;4798;41.574;23.734;2023-11-22T11:04:19;7.03;;;2.53;;
9520;SDS011;4798;41.574;23.734;2023-11-22T11:06:51;1.77;;;1.57;;
9520;SDS011;4798;41.574;23.734;2023-11-22T11:09:23;2.60;;;1.20;;
9520;SDS011;4798;41.574;23.734;2023-11-22T11:11:59;1.93;;;1.33;;
9520;SDS011;4798;41.574;23.734;2023-11-22T11:14:34;1.93;;;0.70;;
9520;SDS011;4798;41.574;23.734;2023-11-22T11:17:05;1.30;;;1.20;;
9520;SDS011;4798;41.574;23.734;2023-11-22T11:19:36;1.53;;;0.87;;
9520;SDS011;4798;41.574;23.734;2023-11-22T11:22:07;2.80;;;1.57;;
9520;SDS011;4798;41.574;23.734;2023-11-22T11:24:40;1.67;;;1.57;;
9520;SDS011;4798;41.574;23.734;2023-11-22T11:27:11;1.83;;;0.97;;
9520;SDS011;4798;41.574;23.734;2023-11-22T11:29:40;1.27;;;1.17;;
9520;SDS011;4798;41.574;23.734;2023-11-22T11:32:13;2.83;;;1.97;;
9520;SDS011;4798;41.574;23.734;2023-11-22T11:34:58;5.00;;;1.80;;
9520;SDS011;4798;41.574;23.734;2023-11-22T11:37:29;2.07;;;1.97;;
9520;SDS011;4798;41.574;23.734;2023-11-22T11:39:57;10.20;;;2.50;;
9520;SDS011;4798;41.574;23.734;2023-11-22T11:42:26;4.27;;;2.63;;
9520;SDS011;4798;41.574;23.734;2023-11-22T11:45:04;3.13;;;2.40;;
9520;SDS011;4798;41.574;23.734;2023-11-22T11:47:35;1.50;;;1.40;;
9520;SDS011;4798;41.574;23.734;2023-11-22T11:50:04;2.60;;;1.67;;
9520;SDS011;4798;41.574;23.734;2023-11-22T11:52:33;1.13;;;1.10;;
9520;SDS011;4798;41.574;23.734;2023-11-22T11:55:02;1.40;;;1.30;;
9520;SDS011;4798;41.574;23.734;2023-11-22T11:57:33;0.57;;;0.57;;
9520;SDS011;4798;41.574;23.734;2023-11-22T12:00:03;1.63;;;1.53;;
9520;SDS011;4798;41.574;23.734;2023-11-22T12:02:33;1.67;;;1.57;;
9520;SDS011;4798;41.574;23.734;2023-11-22T12:05:03;1.20;;;1.20;;
9520;SDS011;4798;41.574;23.734;2023-11-22T12:07:36;2.97;;;2.13;;
9520;SDS011;4798;41.574;23.734;2023-11-22T12:10:04;6.70;;;3.97;;
9520;SDS011;4798;41.574;23.734;2023-11-22T12:12:34;2.73;;;1.77;;
9520;SDS011;4798;41.574;23.734;2023-11-22T12:15:04;1.70;;;1.60;;
9520;SDS011;4798;41.574;23.734;2023-11-22T12:17:33;3.73;;;1.97;;
9520;SDS011;4798;41.574;23.734;2023-11-22T12:20:11;2.97;;;2.63;;
9520;SDS011;4798;41.574;23.734;2023-11-22T12:22:44;1.00;;;0.47;;
9520;SDS011;4798;41.574;23.734;2023-11-22T12:25:14;1.00;;;0.60;;
9520;SDS011;4798;41.574;23.734;2023-11-22T12:27:42;0.93;;;0.83;;
9520;SDS011;4798;41.574;23.734;2023-11-22T12:30:27;1.43;;;0.40;;
9520;SDS011;4798;41.574;23.734;2023-11-22T12:32:56;0.60;;;0.60;;
9520;SDS011;4798;41.574;23.734;2023-11-22T12:35:26;2.00;;;0.77;;
9520;SDS011;4798;41.574;23.734;2023-11-22T12:37:55;1.33;;;0.93;;
9520;SDS011;4798;41.574;23.734;2023-11-22T12:40:23;0.93;;;0.83;;
9520;SDS011;4798;41.574;23.734;2023-11-22T12:42:52;1.13;;;1.00;;
9520;SDS011;4798;41.574;23.734;2023-11-22T12:45:20;0.70;;;0.40;;
9520;SDS011;4798;41.574;23.734;2023-11-22T12:47:51;1.07;;;0.70;;
9520;SDS011;4798;41.574;23.734;2023-11-22T12:50:30;0.93;;;0.90;;
9520;SDS011;4798;41.574;23.734;2023-11-22T12:53:09;4.73;;;0.83;;
9520;SDS011;4798;41.574;23.734;2023-11-22T12:55:41;0.90;;;0.90;;
9520;SDS011;4798;41.574;23.734;2023-11-22T12:58:11;2.30;;;1.53;;
9520;SDS011;4798;41.574;23.734;2023-11-22T13:00:40;1.17;;;0.93;;
9520;SDS011;4798;41.574;23.734;2023-11-22T13:03:09;0.50;;;0.40;;
9520;SDS011;4798;41.574;23.734;2023-11-22T13:05:41;0.60;;;0.50;;
9520;SDS011;4798;41.574;23.734;2023-11-22T13:08:11;0.83;;;0.83;;
9520;SDS011;4798;41.574;23.734;2023-11-22T13:10:43;0.50;;;0.40;;
9520;SDS011;4798;41.574;23.734;2023-11-22T13:13:15;0.67;;;0.67;;
9520;SDS011;4798;41.574;23.734;2023-11-22T13:15:43;0.77;;;0.77;;
9520;SDS011;4798;41.574;23.734;2023-11-22T13:18:12;0.70;;;0.60;;
9520;SDS011;4798;41.574;23.734;2023-11-22T13:20:42;0.90;;;0.40;;
9520;SDS011;4798;41.574;23.734;2023-11-22T13:23:12;0.60;;;0.60;;
9520;SDS011;4798;41.574;23.734;2023-11-22T13:25:41;0.50;;;0.40;;
9520;SDS011;4798;41.574;23.734;2023-11-22T13:28:10;0.60;;;0.60;;
9520;SDS011;4798;41.574;23.734;2023-11-22T13:30:40;1.43;;;1.33;;
9520;SDS011;4798;41.574;23.734;2023-11-22T13:33:08;2.77;;;1.00;;
9520;SDS011;4798;41.574;23.734;2023-11-22T13:35:38;0.67;;;0.67;;
9520;SDS011;4798;41.574;23.734;2023-11-22T13:38:09;1.53;;;0.70;;
9520;SDS011;4798;41.574;23.734;2023-11-22T13:40:38;1.03;;;0.60;;
9520;SDS011;4798;41.574;23.734;2023-11-22T13:43:07;0.87;;;0.80;;
9520;SDS011;4798;41.574;23.734;2023-11-22T13:45:36;4.73;;;0.50;;
9520;SDS011;4798;41.574;23.734;2023-11-22T13:48:08;1.00;;;1.00;;
9520;SDS011;4798;41.574;23.734;2023-11-22T13:50:38;0.40;;;0.30;;
9520;SDS011;4798;41.574;23.734;2023-11-22T13:53:08;0.60;;;0.50;;
9520;SDS011;4798;41.574;23.734;2023-11-22T13:55:38;1.27;;;0.90;;
9520;SDS011;4798;41.574;23.734;2023-11-22T13:58:06;0.60;;;0.60;;
9520;SDS011;4798;41.574;23.734;2023-11-22T14:00:35;0.63;;;0.63;;
9520;SDS011;4798;41.574;23.734;2023-11-22T14:03:05;1.00;;;1.00;;
9520;SDS011;4798;41.574;23.734;2023-11-22T14:05:35;0.93;;;0.80;;
9520;SDS011;4798;41.574;23.734;2023-11-22T14:08:06;0.50;;;0.40;;
9520;SDS011;4798;41.574;23.734;2023-11-22T14:10:36;0.67;;;0.57;;
9520;SDS011;4798;41.574;23.734;2023-11-22T14:13:04;0.50;;;0.50;;
9520;SDS011;4798;41.574;23.734;2023-11-22T14:15:35;1.37;;;1.27;;
9520;SDS011;4798;41.574;23.734;2023-11-22T14:18:04;0.40;;;0.30;;
9520;SDS011;4798;41.574;23.734;2023-11-22T14:20:33;2.93;;;1.00;;
9520;SDS011;4798;41.574;23.734;2023-11-22T14:23:02;1.30;;;1.20;;
9520;SDS011;4798;41.574;23.734;2023-11-22T14:25:31;1.80;;;1.67;;
9520;SDS011;4798;41.574;23.734;2023-11-22T14:28:00;1.00;;;0.80;;
9520;SDS011;4798;41.574;23.734;2023-11-22T14:30:30;0.93;;;0.93;;
9520;SDS011;4798;41.574;23.734;2023-11-22T14:33:02;0.43;;;0.43;;
9520;SDS011;4798;41.574;23.734;2023-11-22T14:35:34;0.50;;;0.40;;
9520;SDS011;4798;41.574;23.734;2023-11-22T14:38:03;1.13;;;0.67;;
9520;SDS011;4798;41.574;23.734;2023-11-22T14:40:33;0.60;;;0.60;;
9520;SDS011;4798;41.574;23.734;2023-11-22T14:43:05;0.97;;;0.97;;
9520;SDS011;4798;41.574;23.734;2023-11-22T14:45:34;0.70;;;0.57;;
9520;SDS011;4798;41.574;23.734;2023-11-22T14:48:04;0.83;;;0.83;;
9520;SDS011;4798;41.574;23.734;2023-11-22T14:50:34;2.67;;;0.77;;
9520;SDS011;4798;41.574;23.734;2023-11-22T14:53:03;5.83;;;0.77;;
9520;SDS011;4798;41.574;23.734;2023-11-22T14:55:33;1.27;;;1.03;;
9520;SDS011;4798;41.574;23.734;2023-11-22T14:58:08;0.60;;;0.50;;
9520;SDS011;4798;41.574;23.734;2023-11-22T15:00:37;0.50;;;0.50;;
9520;SDS011;4798;41.574;23.734;2023-11-22T15:03:05;8.63;;;1.03;;
9520;SDS011;4798;41.574;23.734;2023-11-22T15:05:35;1.30;;;1.20;;
9520;SDS011;4798;41.574;23.734;2023-11-22T15:08:03;1.73;;;1.63;;
9520;SDS011;4798;41.574;23.734;2023-11-22T15:10:34;2.10;;;2.00;;
9520;SDS011;4798;41.574;23.734;2023-11-22T15:13:03;0.60;;;0.60;;
9520;SDS011;4798;41.574;23.734;2023-11-22T15:15:37;1.20;;;1.10;;